sensor_id;sensor_type;location;lat;lon;timestamp;pressure;altitude;pressure_sealevel;temperature;humidity
22440;BME280;11387;51.612;7.210;2022-08-19T00:01:44;100481.81;;;17.94;77.75
22440;BME280;11387;51.612;7.210;2022-08-19T00:04:22;100477.28;;;18.01;77.35
22440;BME280;11387;51.612;7.210;2022-08-19T00:06:51;100480.66;;;17.95;77.22
22440;BME280;11387;51.612;7.210;2022-08-19T00:09:21;100486.53;;;17.93;77.07
22440;BME280;11387;51.612;7.210;2022-08-19T00:11:50;100489.19;;;17.90;77.22
22440;BME280;11387;51.612;7.210;2022-08-19T00:14:19;100482.50;;;17.91;77.08
22440;BME280;11387;51.612;7.210;2022-08-19T00:16:47;100491.97;;;17.90;77.29
22440;BME280;11387;51.612;7.210;2022-08-19T00:19:16;100491.97;;;17.90;77.31
22440;BME280;11387;51.612;7.210;2022-08-19T00:21:45;100490.16;;;17.81;77.74
22440;BME280;11387;51.612;7.210;2022-08-19T00:24:14;100489.94;;;17.74;77.94
22440;BME280;11387;51.612;7.210;2022-08-19T00:26:43;100480.00;;;17.86;77.59
22440;BME280;11387;51.612;7.210;2022-08-19T00:29:13;100491.09;;;17.73;77.80
22440;BME280;11387;51.612;7.210;2022-08-19T00:31:42;100486.91;;;17.79;77.95
22440;BME280;11387;51.612;7.210;2022-08-19T00:34:11;100491.09;;;17.73;78.21
22440;BME280;11387;51.612;7.210;2022-08-19T00:36:39;100489.75;;;17.67;78.37
22440;BME280;11387;51.612;7.210;2022-08-19T00:39:10;100483.25;;;17.63;78.61
22440;BME280;11387;51.612;7.210;2022-08-19T00:41:39;100484.84;;;17.76;78.28
22440;BME280;11387;51.612;7.210;2022-08-19T00:44:10;100483.25;;;17.63;78.14
22440;BME280;11387;51.612;7.210;2022-08-19T00:46:41;100479.22;;;17.61;78.67
22440;BME280;11387;51.612;7.210;2022-08-19T00:49:11;100480.72;;;17.58;78.87
22440;BME280;11387;51.612;7.210;2022-08-19T00:51:42;100481.91;;;17.69;78.53
22440;BME280;11387;51.612;7.210;2022-08-19T00:54:14;100484.75;;;17.61;78.74
22440;BME280;11387;51.612;7.210;2022-08-19T00:56:43;100484.31;;;17.59;78.85
22440;BME280;11387;51.612;7.210;2022-08-19T00:59:11;100483.94;;;17.60;78.68
22440;BME280;11387;51.612;7.210;2022-08-19T01:01:59;100476.69;;;17.56;78.74
22440;BME280;11387;51.612;7.210;2022-08-19T01:04:27;100477.25;;;17.61;78.76
22440;BME280;11387;51.612;7.210;2022-08-19T01:06:55;100485.34;;;17.54;78.78
22440;BME280;11387;51.612;7.210;2022-08-19T01:09:24;100479.81;;;17.54;78.98
22440;BME280;11387;51.612;7.210;2022-08-19T01:11:52;100473.34;;;17.50;79.11
22440;BME280;11387;51.612;7.210;2022-08-19T01:14:20;100468.53;;;17.47;79.06
22440;BME280;11387;51.612;7.210;2022-08-19T01:16:48;100469.47;;;17.39;79.62
22440;BME280;11387;51.612;7.210;2022-08-19T01:19:24;100469.72;;;17.34;79.94
22440;BME280;11387;51.612;7.210;2022-08-19T01:21:58;100471.56;;;17.30;79.88
22440;BME280;11387;51.612;7.210;2022-08-19T01:24:41;100473.63;;;17.33;80.22
22440;BME280;11387;51.612;7.210;2022-08-19T01:27:15;100479.97;;;17.33;80.07
22440;BME280;11387;51.612;7.210;2022-08-19T01:29:44;100481.47;;;17.31;79.93
22440;BME280;11387;51.612;7.210;2022-08-19T01:32:15;100486.06;;;17.27;80.10
22440;BME280;11387;51.612;7.210;2022-08-19T01:34:59;100485.50;;;17.33;79.86
22440;BME280;11387;51.612;7.210;2022-08-19T01:37:30;100485.38;;;17.30;80.29
22440;BME280;11387;51.612;7.210;2022-08-19T01:39:59;100486.06;;;17.39;79.76
22440;BME280;11387;51.612;7.210;2022-08-19T01:42:31;100490.34;;;17.36;79.83
22440;BME280;11387;51.612;7.210;2022-08-19T01:44:59;100475.81;;;17.27;80.21
22440;BME280;11387;51.612;7.210;2022-08-19T01:47:27;100480.78;;;17.34;80.01
22440;BME280;11387;51.612;7.210;2022-08-19T01:49:55;100477.44;;;17.28;80.23
22440;BME280;11387;51.612;7.210;2022-08-19T01:52:22;100483.06;;;17.20;80.80
22440;BME280;11387;51.612;7.210;2022-08-19T01:54:50;100478.47;;;17.24;80.53
22440;BME280;11387;51.612;7.210;2022-08-19T01:57:19;100472.72;;;17.29;80.31
22440;BME280;11387;51.612;7.210;2022-08-19T01:59:47;100478.47;;;17.36;79.82
22440;BME280;11387;51.612;7.210;2022-08-19T02:02:15;100470.97;;;17.24;80.20
22440;BME280;11387;51.612;7.210;2022-08-19T02:04:43;100475.00;;;17.14;80.42
22440;BME280;11387;51.612;7.210;2022-08-19T02:07:12;100477.88;;;17.18;80.56
22440;BME280;11387;51.612;7.210;2022-08-19T02:09:39;100480.88;;;17.13;80.87
22440;BME280;11387;51.612;7.210;2022-08-19T02:12:07;100473.66;;;17.08;80.98
22440;BME280;11387;51.612;7.210;2022-08-19T02:14:37;100473.41;;;17.13;81.12
22440;BME280;11387;51.612;7.210;2022-08-19T02:17:05;100466.25;;;17.12;81.06
22440;BME280;11387;51.612;7.210;2022-08-19T02:19:33;100455.00;;;17.05;81.35
22440;BME280;11387;51.612;7.210;2022-08-19T02:22:04;100457.75;;;17.05;81.43
22440;BME280;11387;51.612;7.210;2022-08-19T02:24:33;100455.47;;;17.07;81.39
22440;BME280;11387;51.612;7.210;2022-08-19T02:27:00;100466.06;;;17.05;81.54
22440;BME280;11387;51.612;7.210;2022-08-19T02:29:28;100461.44;;;16.97;81.78
22440;BME280;11387;51.612;7.210;2022-08-19T02:31:57;100458.69;;;17.09;81.50
22440;BME280;11387;51.612;7.210;2022-08-19T02:34:25;100462.59;;;17.08;81.42
22440;BME280;11387;51.612;7.210;2022-08-19T02:36:53;100469.16;;;17.04;81.32
22440;BME280;11387;51.612;7.210;2022-08-19T02:39:21;100475.03;;;17.02;81.25
22440;BME280;11387;51.612;7.210;2022-08-19T02:41:47;100487.47;;;16.96;81.60
22440;BME280;11387;51.612;7.210;2022-08-19T02:44:16;100475.84;;;17.03;81.73
22440;BME280;11387;51.612;7.210;2022-08-19T02:46:58;100471.81;;;17.00;81.78
22440;BME280;11387;51.612;7.210;2022-08-19T02:49:26;100483.31;;;17.02;81.78
22440;BME280;11387;51.612;7.210;2022-08-19T02:51:53;100475.97;;;17.06;81.44
22440;BME280;11387;51.612;7.210;2022-08-19T02:54:21;100472.03;;;17.07;81.71
22440;BME280;11387;51.612;7.210;2022-08-19T02:56:49;100472.50;;;16.97;81.92
22440;BME280;11387;51.612;7.210;2022-08-19T02:59:16;100470.78;;;17.05;81.86
22440;BME280;11387;51.612;7.210;2022-08-19T03:01:48;100470.19;;;17.11;81.34
22440;BME280;11387;51.612;7.210;2022-08-19T03:04:18;100470.63;;;17.13;81.02
22440;BME280;11387;51.612;7.210;2022-08-19T03:06:47;100471.34;;;17.10;81.02
22440;BME280;11387;51.612;7.210;2022-08-19T03:09:16;100464.78;;;17.03;81.41
22440;BME280;11387;51.612;7.210;2022-08-19T03:11:44;100461.44;;;17.09;81.51
22440;BME280;11387;51.612;7.210;2022-08-19T03:14:14;100463.75;;;17.07;81.38
22440;BME280;11387;51.612;7.210;2022-08-19T03:16:43;100463.63;;;17.04;81.21
22440;BME280;11387;51.612;7.210;2022-08-19T03:19:11;100465.59;;;17.03;81.33
22440;BME280;11387;51.612;7.210;2022-08-19T03:21:43;100463.63;;;16.92;81.69
22440;BME280;11387;51.612;7.210;2022-08-19T03:24:11;100473.28;;;16.86;81.89
22440;BME280;11387;51.612;7.210;2022-08-19T03:26:41;100473.16;;;16.82;82.23
22440;BME280;11387;51.612;7.210;2022-08-19T03:29:10;100472.81;;;16.83;82.33
22440;BME280;11387;51.612;7.210;2022-08-19T03:31:49;100472.13;;;16.87;82.23
22440;BME280;11387;51.612;7.210;2022-08-19T03:34:20;100470.63;;;16.89;82.00
22440;BME280;11387;51.612;7.210;2022-08-19T03:36:50;100479.28;;;16.88;82.06
22440;BME280;11387;51.612;7.210;2022-08-19T03:39:18;100472.00;;;16.83;82.11
22440;BME280;11387;51.612;7.210;2022-08-19T03:41:46;100471.09;;;16.79;82.38
22440;BME280;11387;51.612;7.210;2022-08-19T03:44:35;100471.31;;;16.74;82.51
22440;BME280;11387;51.612;7.210;2022-08-19T03:47:04;100474.22;;;16.77;82.51
22440;BME280;11387;51.612;7.210;2022-08-19T03:49:32;100467.06;;;16.76;82.59
22440;BME280;11387;51.612;7.210;2022-08-19T03:52:04;100470.66;;;16.77;82.52
22440;BME280;11387;51.612;7.210;2022-08-19T03:54:34;100471.78;;;16.76;82.51
22440;BME280;11387;51.612;7.210;2022-08-19T03:57:02;100476.38;;;16.72;82.76
22440;BME280;11387;51.612;7.210;2022-08-19T03:59:33;100477.66;;;16.74;83.11
22440;BME280;11387;51.612;7.210;2022-08-19T04:02:05;100478.69;;;16.70;83.15
22440;BME280;11387;51.612;7.210;2022-08-19T04:04:35;100479.63;;;16.74;83.09
22440;BME280;11387;51.612;7.210;2022-08-19T04:07:05;100486.75;;;16.75;82.93
22440;BME280;11387;51.612;7.210;2022-08-19T04:09:33;100482.25;;;16.70;82.91
22440;BME280;11387;51.612;7.210;2022-08-19T04:12:03;100482.31;;;16.62;83.08
22440;BME280;11387;51.612;7.210;2022-08-19T04:14:33;100483.81;;;16.59;83.38
22440;BME280;11387;51.612;7.210;2022-08-19T04:17:02;100483.66;;;16.76;82.70
22440;BME280;11387;51.612;7.210;2022-08-19T04:19:32;100474.22;;;16.77;82.17
22440;BME280;11387;51.612;7.210;2022-08-19T04:22:00;100486.16;;;16.81;82.12
22440;BME280;11387;51.612;7.210;2022-08-19T04:24:29;100496.19;;;16.86;81.83
22440;BME280;11387;51.612;7.210;2022-08-19T04:26:59;100500.00;;;16.94;81.57
22440;BME280;11387;51.612;7.210;2022-08-19T04:29:29;100493.22;;;17.03;81.43
22440;BME280;11387;51.612;7.210;2022-08-19T04:31:58;100490.34;;;17.12;81.21
22440;BME280;11387;51.612;7.210;2022-08-19T04:34:35;100487.44;;;17.21;81.14
22440;BME280;11387;51.612;7.210;2022-08-19T04:37:23;100485.38;;;17.30;80.86
22440;BME280;11387;51.612;7.210;2022-08-19T04:40:03;100490.53;;;17.43;80.35
22440;BME280;11387;51.612;7.210;2022-08-19T04:42:51;100492.47;;;17.55;79.59
22440;BME280;11387;51.612;7.210;2022-08-19T04:45:22;100491.78;;;17.58;79.46
22440;BME280;11387;51.612;7.210;2022-08-19T04:47:55;100492.47;;;17.55;79.24
22440;BME280;11387;51.612;7.210;2022-08-19T04:50:45;100486.94;;;17.55;79.30
22440;BME280;11387;51.612;7.210;2022-08-19T04:53:17;100493.75;;;17.45;79.60
22440;BME280;11387;51.612;7.210;2022-08-19T04:55:46;100498.47;;;17.45;79.74
22440;BME280;11387;51.612;7.210;2022-08-19T04:58:14;100492.06;;;17.41;79.79
22440;BME280;11387;51.612;7.210;2022-08-19T05:00:42;100504.28;;;17.40;80.05
22440;BME280;11387;51.612;7.210;2022-08-19T05:03:11;100505.44;;;17.39;80.32
22440;BME280;11387;51.612;7.210;2022-08-19T05:05:40;100508.19;;;17.39;80.33
22440;BME280;11387;51.612;7.210;2022-08-19T05:08:11;100514.38;;;17.48;80.13
22440;BME280;11387;51.612;7.210;2022-08-19T05:10:40;100510.34;;;17.58;79.81
22440;BME280;11387;51.612;7.210;2022-08-19T05:13:10;100516.72;;;17.70;78.92
22440;BME280;11387;51.612;7.210;2022-08-19T05:15:38;100522.94;;;17.67;78.91
22440;BME280;11387;51.612;7.210;2022-08-19T05:18:05;100519.94;;;17.72;78.85
22440;BME280;11387;51.612;7.210;2022-08-19T05:20:50;100518.97;;;17.80;78.58
22440;BME280;11387;51.612;7.210;2022-08-19T05:23:36;100519.78;;;17.81;78.35
22440;BME280;11387;51.612;7.210;2022-08-19T05:26:04;100521.97;;;17.88;78.48
22440;BME280;11387;51.612;7.210;2022-08-19T05:28:33;100519.75;;;17.93;78.35
22440;BME280;11387;51.612;7.210;2022-08-19T05:31:01;100520.84;;;18.04;77.81
22440;BME280;11387;51.612;7.210;2022-08-19T05:33:29;100527.63;;;18.19;77.53
22440;BME280;11387;51.612;7.210;2022-08-19T05:35:57;100522.78;;;18.44;76.15
22440;BME280;11387;51.612;7.210;2022-08-19T05:38:25;100521.81;;;18.52;75.90
22440;BME280;11387;51.612;7.210;2022-08-19T05:40:54;100530.63;;;18.70;75.10
22440;BME280;11387;51.612;7.210;2022-08-19T05:43:22;100533.34;;;18.82;74.66
22440;BME280;11387;51.612;7.210;2022-08-19T05:45:51;100531.28;;;19.10;74.13
22440;BME280;11387;51.612;7.210;2022-08-19T05:48:19;100527.25;;;19.55;72.50
22440;BME280;11387;51.612;7.210;2022-08-19T05:50:47;100520.56;;;19.75;71.79
22440;BME280;11387;51.612;7.210;2022-08-19T05:53:16;100520.28;;;20.00;71.24
22440;BME280;11387;51.612;7.210;2022-08-19T05:55:44;100524.09;;;20.11;70.63
22440;BME280;11387;51.612;7.210;2022-08-19T05:58:12;100528.75;;;20.26;70.23
22440;BME280;11387;51.612;7.210;2022-08-19T06:00:40;100531.44;;;20.38;69.94
22440;BME280;11387;51.612;7.210;2022-08-19T06:03:11;100526.34;;;20.63;69.17
22440;BME280;11387;51.612;7.210;2022-08-19T06:05:40;100524.38;;;20.87;68.82
22440;BME280;11387;51.612;7.210;2022-08-19T06:08:17;100514.94;;;20.91;67.87
22440;BME280;11387;51.612;7.210;2022-08-19T06:10:45;100510.53;;;20.90;68.23
22440;BME280;11387;51.612;7.210;2022-08-19T06:13:13;100520.91;;;20.70;69.09
22440;BME280;11387;51.612;7.210;2022-08-19T06:15:41;100514.19;;;20.71;69.08
22440;BME280;11387;51.612;7.210;2022-08-19T06:18:12;100511.66;;;20.85;68.24
22440;BME280;11387;51.612;7.210;2022-08-19T06:20:41;100502.75;;;20.99;68.45
22440;BME280;11387;51.612;7.210;2022-08-19T06:23:21;100501.75;;;21.11;67.66
22440;BME280;11387;51.612;7.210;2022-08-19T06:25:49;100507.38;;;21.14;66.86
22440;BME280;11387;51.612;7.210;2022-08-19T06:28:17;100513.66;;;21.11;66.67
22440;BME280;11387;51.612;7.210;2022-08-19T06:30:45;100522.66;;;21.01;67.92
22440;BME280;11387;51.612;7.210;2022-08-19T06:33:14;100521.97;;;21.08;67.94
22440;BME280;11387;51.612;7.210;2022-08-19T06:35:44;100516.34;;;21.27;67.44
22440;BME280;11387;51.612;7.210;2022-08-19T06:38:12;100518.13;;;21.39;66.22
22440;BME280;11387;51.612;7.210;2022-08-19T06:40:40;100519.19;;;21.57;66.17
22440;BME280;11387;51.612;7.210;2022-08-19T06:43:13;100517.38;;;21.42;66.04
22440;BME280;11387;51.612;7.210;2022-08-19T06:45:43;100515.06;;;21.47;66.54
22440;BME280;11387;51.612;7.210;2022-08-19T06:48:14;100512.22;;;21.44;66.35
22440;BME280;11387;51.612;7.210;2022-08-19T06:50:43;100509.44;;;21.44;66.12
22440;BME280;11387;51.612;7.210;2022-08-19T06:53:12;100514.56;;;21.38;66.32
22440;BME280;11387;51.612;7.210;2022-08-19T06:55:40;100508.97;;;21.15;66.87
22440;BME280;11387;51.612;7.210;2022-08-19T06:58:07;100514.38;;;21.28;66.72
22440;BME280;11387;51.612;7.210;2022-08-19T07:00:36;100509.06;;;21.72;65.90
22440;BME280;11387;51.612;7.210;2022-08-19T07:03:04;100510.34;;;22.08;64.61
22440;BME280;11387;51.612;7.210;2022-08-19T07:05:40;100511.38;;;22.26;64.44
22440;BME280;11387;51.612;7.210;2022-08-19T07:08:11;100507.97;;;22.43;63.68
22440;BME280;11387;51.612;7.210;2022-08-19T07:10:42;100516.94;;;22.60;63.33
22440;BME280;11387;51.612;7.210;2022-08-19T07:13:11;100513.34;;;22.63;63.15
22440;BME280;11387;51.612;7.210;2022-08-19T07:15:39;100517.34;;;22.62;62.72
22440;BME280;11387;51.612;7.210;2022-08-19T07:18:08;100518.94;;;22.63;62.67
22440;BME280;11387;51.612;7.210;2022-08-19T07:20:39;100512.63;;;22.69;62.69
22440;BME280;11387;51.612;7.210;2022-08-19T07:23:07;100524.78;;;22.84;62.43
22440;BME280;11387;51.612;7.210;2022-08-19T07:25:41;100516.06;;;22.89;61.88
22440;BME280;11387;51.612;7.210;2022-08-19T07:28:09;100518.88;;;22.93;61.93
22440;BME280;11387;51.612;7.210;2022-08-19T07:30:50;100517.66;;;22.90;61.65
22440;BME280;11387;51.612;7.210;2022-08-19T07:33:18;100530.19;;;23.10;61.46
22440;BME280;11387;51.612;7.210;2022-08-19T07:35:47;100527.91;;;23.27;60.48
22440;BME280;11387;51.612;7.210;2022-08-19T07:38:16;100542.03;;;23.44;60.70
22440;BME280;11387;51.612;7.210;2022-08-19T07:40:44;100534.88;;;23.47;59.75
22440;BME280;11387;51.612;7.210;2022-08-19T07:43:12;100542.69;;;23.78;59.29
22440;BME280;11387;51.612;7.210;2022-08-19T07:45:43;100541.00;;;24.39;57.45
22440;BME280;11387;51.612;7.210;2022-08-19T07:48:11;100544.69;;;24.82;56.12
22440;BME280;11387;51.612;7.210;2022-08-19T07:50:39;100551.16;;;25.65;54.15
22440;BME280;11387;51.612;7.210;2022-08-19T07:53:08;100545.34;;;27.05;51.47
22440;BME280;11387;51.612;7.210;2022-08-19T07:55:36;100542.28;;;28.46;49.00
22440;BME280;11387;51.612;7.210;2022-08-19T07:58:08;100546.78;;;30.14;44.23
22440;BME280;11387;51.612;7.210;2022-08-19T08:00:36;100558.25;;;30.63;42.76
22440;BME280;11387;51.612;7.210;2022-08-19T08:03:04;100556.72;;;31.60;41.02
22440;BME280;11387;51.612;7.210;2022-08-19T08:05:31;100556.03;;;32.42;39.44
22440;BME280;11387;51.612;7.210;2022-08-19T08:08:18;100555.03;;;32.36;38.50
22440;BME280;11387;51.612;7.210;2022-08-19T08:11:10;100553.06;;;33.00;38.01
22440;BME280;11387;51.612;7.210;2022-08-19T08:13:41;100559.94;;;33.85;36.07
22440;BME280;11387;51.612;7.210;2022-08-19T08:16:09;100560.78;;;34.60;35.10
22440;BME280;11387;51.612;7.210;2022-08-19T08:18:40;100564.13;;;34.67;35.08
22440;BME280;11387;51.612;7.210;2022-08-19T08:21:08;100568.84;;;34.92;34.67
22440;BME280;11387;51.612;7.210;2022-08-19T08:23:37;100567.69;;;33.71;34.87
22440;BME280;11387;51.612;7.210;2022-08-19T08:26:06;100565.13;;;34.42;34.69
22440;BME280;11387;51.612;7.210;2022-08-19T08:28:35;100570.66;;;34.24;33.93
22440;BME280;11387;51.612;7.210;2022-08-19T08:31:04;100572.75;;;33.89;34.56
22440;BME280;11387;51.612;7.210;2022-08-19T08:33:35;100575.88;;;31.85;37.61
22440;BME280;11387;51.612;7.210;2022-08-19T08:36:04;100575.38;;;33.11;36.53
22440;BME280;11387;51.612;7.210;2022-08-19T08:38:32;100577.06;;;34.90;34.03
22440;BME280;11387;51.612;7.210;2022-08-19T08:41:14;100575.09;;;36.13;31.89
22440;BME280;11387;51.612;7.210;2022-08-19T08:43:48;100570.19;;;36.32;31.55
22440;BME280;11387;51.612;7.210;2022-08-19T08:46:20;100571.31;;;37.19;30.42
22440;BME280;11387;51.612;7.210;2022-08-19T08:49:02;100577.94;;;38.35;28.54
22440;BME280;11387;51.612;7.210;2022-08-19T08:51:34;100576.72;;;38.86;27.59
22440;BME280;11387;51.612;7.210;2022-08-19T08:54:12;100575.22;;;39.81;26.75
22440;BME280;11387;51.612;7.210;2022-08-19T08:56:43;100577.53;;;39.56;27.00
22440;BME280;11387;51.612;7.210;2022-08-19T08:59:16;100567.94;;;38.89;27.11
22440;BME280;11387;51.612;7.210;2022-08-19T09:01:46;100573.66;;;37.53;29.11
22440;BME280;11387;51.612;7.210;2022-08-19T09:04:15;100575.69;;;36.44;30.68
22440;BME280;11387;51.612;7.210;2022-08-19T09:06:50;100564.22;;;35.26;32.32
22440;BME280;11387;51.612;7.210;2022-08-19T09:09:26;100566.19;;;36.57;31.03
22440;BME280;11387;51.612;7.210;2022-08-19T09:12:05;100566.25;;;38.09;28.37
22440;BME280;11387;51.612;7.210;2022-08-19T09:14:44;100557.78;;;39.58;24.88
22440;BME280;11387;51.612;7.210;2022-08-19T09:17:19;100555.63;;;39.94;24.83
22440;BME280;11387;51.612;7.210;2022-08-19T09:19:50;100555.03;;;41.42;23.08
22440;BME280;11387;51.612;7.210;2022-08-19T09:22:18;100563.06;;;41.32;23.05
22440;BME280;11387;51.612;7.210;2022-08-19T09:24:53;100563.00;;;39.60;25.41
22440;BME280;11387;51.612;7.210;2022-08-19T09:27:24;100557.44;;;38.66;26.64
22440;BME280;11387;51.612;7.210;2022-08-19T09:30:10;100555.78;;;37.91;27.60
22440;BME280;11387;51.612;7.210;2022-08-19T09:32:39;100571.47;;;36.91;28.47
22440;BME280;11387;51.612;7.210;2022-08-19T09:35:08;100568.72;;;35.54;30.30
22440;BME280;11387;51.612;7.210;2022-08-19T09:37:37;100565.63;;;35.12;31.31
22440;BME280;11387;51.612;7.210;2022-08-19T09:40:07;100558.66;;;35.99;30.35
22440;BME280;11387;51.612;7.210;2022-08-19T09:42:38;100560.88;;;36.04;30.42
22440;BME280;11387;51.612;7.210;2022-08-19T09:45:20;100570.63;;;36.49;29.56
22440;BME280;11387;51.612;7.210;2022-08-19T09:47:50;100561.75;;;36.56;29.64
22440;BME280;11387;51.612;7.210;2022-08-19T09:50:23;100558.09;;;36.55;29.70
22440;BME280;11387;51.612;7.210;2022-08-19T09:53:00;100560.59;;;38.38;26.87
22440;BME280;11387;51.612;7.210;2022-08-19T09:55:28;100559.91;;;40.56;24.66
22440;BME280;11387;51.612;7.210;2022-08-19T09:58:02;100556.03;;;41.98;22.98
22440;BME280;11387;51.612;7.210;2022-08-19T10:00:30;100547.75;;;42.11;22.49
22440;BME280;11387;51.612;7.210;2022-08-19T10:02:58;100552.19;;;42.18;22.22
22440;BME280;11387;51.612;7.210;2022-08-19T10:05:26;100557.72;;;42.88;21.50
22440;BME280;11387;51.612;7.210;2022-08-19T10:08:15;100558.59;;;43.63;21.40
22440;BME280;11387;51.612;7.210;2022-08-19T10:10:47;100549.28;;;42.01;22.50
22440;BME280;11387;51.612;7.210;2022-08-19T10:13:18;100553.47;;;40.35;24.38
22440;BME280;11387;51.612;7.210;2022-08-19T10:15:48;100562.41;;;39.00;25.60
22440;BME280;11387;51.612;7.210;2022-08-19T10:18:18;100545.75;;;39.75;24.78
22440;BME280;11387;51.612;7.210;2022-08-19T10:20:47;100551.38;;;40.35;24.59
22440;BME280;11387;51.612;7.210;2022-08-19T10:23:17;100541.63;;;41.92;22.63
22440;BME280;11387;51.612;7.210;2022-08-19T10:25:46;100542.59;;;41.61;22.23
22440;BME280;11387;51.612;7.210;2022-08-19T10:28:14;100546.47;;;39.69;24.89
22440;BME280;11387;51.612;7.210;2022-08-19T10:30:46;100540.56;;;40.82;22.69
22440;BME280;11387;51.612;7.210;2022-08-19T10:33:14;100550.06;;;42.07;21.64
22440;BME280;11387;51.612;7.210;2022-08-19T10:36:04;100546.91;;;40.09;23.71
22440;BME280;11387;51.612;7.210;2022-08-19T10:38:33;100540.91;;;41.38;22.28
22440;BME280;11387;51.612;7.210;2022-08-19T10:41:10;100543.06;;;42.75;20.75
22440;BME280;11387;51.612;7.210;2022-08-19T10:43:38;100537.22;;;43.20;20.13
22440;BME280;11387;51.612;7.210;2022-08-19T10:46:09;100538.97;;;44.39;18.79
22440;BME280;11387;51.612;7.210;2022-08-19T10:48:43;100541.66;;;44.01;18.90
22440;BME280;11387;51.612;7.210;2022-08-19T10:51:11;100541.06;;;43.61;19.37
22440;BME280;11387;51.612;7.210;2022-08-19T10:53:57;100541.38;;;41.96;20.84
22440;BME280;11387;51.612;7.210;2022-08-19T10:56:25;100530.94;;;41.93;20.90
22440;BME280;11387;51.612;7.210;2022-08-19T10:59:11;100532.78;;;43.19;20.07
22440;BME280;11387;51.612;7.210;2022-08-19T11:01:44;100540.25;;;41.65;21.05
22440;BME280;11387;51.612;7.210;2022-08-19T11:04:17;100532.84;;;42.18;20.63
22440;BME280;11387;51.612;7.210;2022-08-19T11:06:47;100535.38;;;43.39;19.33
22440;BME280;11387;51.612;7.210;2022-08-19T11:09:16;100536.81;;;44.15;18.73
22440;BME280;11387;51.612;7.210;2022-08-19T11:11:45;100537.56;;;42.66;20.06
22440;BME280;11387;51.612;7.210;2022-08-19T11:14:16;100531.16;;;41.73;21.02
22440;BME280;11387;51.612;7.210;2022-08-19T11:16:48;100540.44;;;41.02;21.86
22440;BME280;11387;51.612;7.210;2022-08-19T11:19:17;100527.91;;;37.15;26.03
22440;BME280;11387;51.612;7.210;2022-08-19T11:21:47;100535.34;;;34.87;29.30
22440;BME280;11387;51.612;7.210;2022-08-19T11:24:17;100527.50;;;33.38;31.69
22440;BME280;11387;51.612;7.210;2022-08-19T11:26:47;100535.91;;;32.40;33.17
22440;BME280;11387;51.612;7.210;2022-08-19T11:29:18;100532.69;;;31.68;35.00
22440;BME280;11387;51.612;7.210;2022-08-19T11:31:49;100530.75;;;34.50;30.83
22440;BME280;11387;51.612;7.210;2022-08-19T11:34:20;100535.19;;;37.25;27.21
22440;BME280;11387;51.612;7.210;2022-08-19T11:36:49;100530.00;;;40.68;22.87
22440;BME280;11387;51.612;7.210;2022-08-19T11:39:19;100521.34;;;41.42;21.40
22440;BME280;11387;51.612;7.210;2022-08-19T11:41:48;100528.28;;;39.52;23.67
22440;BME280;11387;51.612;7.210;2022-08-19T11:44:16;100520.22;;;40.49;22.41
22440;BME280;11387;51.612;7.210;2022-08-19T11:46:45;100526.03;;;42.99;19.63
22440;BME280;11387;51.612;7.210;2022-08-19T11:49:16;100520.13;;;45.22;17.82
22440;BME280;11387;51.612;7.210;2022-08-19T11:51:50;100513.72;;;46.55;16.84
22440;BME280;11387;51.612;7.210;2022-08-19T11:54:19;100518.56;;;45.40;17.35
22440;BME280;11387;51.612;7.210;2022-08-19T11:56:47;100509.31;;;42.64;19.89
22440;BME280;11387;51.612;7.210;2022-08-19T11:59:15;100519.28;;;44.07;18.30
22440;BME280;11387;51.612;7.210;2022-08-19T12:01:43;100513.00;;;44.39;17.36
22440;BME280;11387;51.612;7.210;2022-08-19T12:04:11;100508.94;;;45.75;16.70
22440;BME280;11387;51.612;7.210;2022-08-19T12:06:40;100513.81;;;46.17;16.44
22440;BME280;11387;51.612;7.210;2022-08-19T12:09:09;100506.81;;;46.45;16.05
22440;BME280;11387;51.612;7.210;2022-08-19T12:11:38;100502.50;;;45.44;16.79
22440;BME280;11387;51.612;7.210;2022-08-19T12:14:09;100503.16;;;45.75;16.58
22440;BME280;11387;51.612;7.210;2022-08-19T12:16:40;100501.50;;;46.62;15.75
22440;BME280;11387;51.612;7.210;2022-08-19T12:19:17;100501.47;;;44.39;17.37
22440;BME280;11387;51.612;7.210;2022-08-19T12:21:50;100493.13;;;45.38;16.27
22440;BME280;11387;51.612;7.210;2022-08-19T12:24:19;100493.88;;;44.41;17.10
22440;BME280;11387;51.612;7.210;2022-08-19T12:26:49;100497.66;;;40.67;20.54
22440;BME280;11387;51.612;7.210;2022-08-19T12:29:19;100492.72;;;43.21;18.22
22440;BME280;11387;51.612;7.210;2022-08-19T12:31:49;100485.97;;;44.96;16.66
22440;BME280;11387;51.612;7.210;2022-08-19T12:34:16;100485.28;;;42.45;18.91
22440;BME280;11387;51.612;7.210;2022-08-19T12:36:46;100484.03;;;40.25;21.22
22440;BME280;11387;51.612;7.210;2022-08-19T12:39:17;100479.94;;;41.12;20.98
22440;BME280;11387;51.612;7.210;2022-08-19T12:41:45;100486.44;;;44.21;17.95
22440;BME280;11387;51.612;7.210;2022-08-19T12:44:21;100492.63;;;44.01;17.82
22440;BME280;11387;51.612;7.210;2022-08-19T12:46:55;100490.16;;;44.46;17.09
22440;BME280;11387;51.612;7.210;2022-08-19T12:49:23;100484.41;;;41.94;19.65
22440;BME280;11387;51.612;7.210;2022-08-19T12:52:11;100490.50;;;38.43;23.35
22440;BME280;11387;51.612;7.210;2022-08-19T12:54:43;100480.63;;;36.66;25.49
22440;BME280;11387;51.612;7.210;2022-08-19T12:57:11;100480.56;;;37.32;25.23
22440;BME280;11387;51.612;7.210;2022-08-19T12:59:38;100491.25;;;39.69;21.82
22440;BME280;11387;51.612;7.210;2022-08-19T13:02:08;100482.91;;;42.32;19.09
22440;BME280;11387;51.612;7.210;2022-08-19T13:04:36;100494.63;;;44.12;17.55
22440;BME280;11387;51.612;7.210;2022-08-19T13:07:07;100480.59;;;44.87;16.51
22440;BME280;11387;51.612;7.210;2022-08-19T13:09:36;100473.75;;;45.33;16.68